createdAt,value
2023-12-05T00:00:59.634Z,10.50
2023-12-05T00:03:28.444Z,9.93
2023-12-05T00:05:58.007Z,10.33
2023-12-05T00:08:27.336Z,9.03
2023-12-05T00:10:55.888Z,10.57
2023-12-05T00:13:25.586Z,11.47
2023-12-05T00:15:59.804Z,10.20
2023-12-05T00:18:28.358Z,10.33
2023-12-05T00:20:56.876Z,10.27
2023-12-05T00:23:25.961Z,10.27
2023-12-05T00:25:54.429Z,9.53
2023-12-05T00:28:23.294Z,10.00
2023-12-05T00:30:53.090Z,9.87
2023-12-05T00:33:21.714Z,10.07
2023-12-05T00:35:50.525Z,9.73
2023-12-05T00:38:19.039Z,11.97
2023-12-05T00:40:48.550Z,10.43
2023-12-05T00:43:17.136Z,10.07
2023-12-05T00:45:45.557Z,10.57
2023-12-05T00:48:15.954Z,10.93
2023-12-05T00:50:46.369Z,9.80
2023-12-05T00:53:15.339Z,10.23
2023-12-05T00:55:43.604Z,10.23
2023-12-05T00:58:12.163Z,10.60
2023-12-05T01:00:40.720Z,10.80
2023-12-05T01:03:09.285Z,9.97
2023-12-05T01:05:39.392Z,10.03
2023-12-05T01:08:08.134Z,9.90
2023-12-05T01:10:36.536Z,10.83
2023-12-05T01:13:04.788Z,10.13
2023-12-05T01:15:33.369Z,10.27
2023-12-05T01:18:02.619Z,11.03
2023-12-05T01:20:31.467Z,11.47
2023-12-05T01:23:01.612Z,10.43
2023-12-05T01:25:30.934Z,10.57
2023-12-05T01:27:59.663Z,10.87
2023-12-05T01:30:28.337Z,11.43
2023-12-05T01:32:56.966Z,10.30
2023-12-05T01:35:25.473Z,11.43
2023-12-05T01:37:53.648Z,9.87
2023-12-05T01:40:24.160Z,10.70
2023-12-05T01:42:53.177Z,10.97
2023-12-05T01:45:21.985Z,10.53
2023-12-05T01:47:51.280Z,11.27
2023-12-05T01:50:25.156Z,10.90
2023-12-05T01:52:56.144Z,11.03
2023-12-05T01:55:26.499Z,10.63
2023-12-05T01:57:55.302Z,12.20
2023-12-05T02:00:25.286Z,10.80
2023-12-05T02:02:53.980Z,11.20
2023-12-05T02:05:23.145Z,10.17
2023-12-05T02:07:51.722Z,9.47
2023-12-05T02:10:20.214Z,10.03
2023-12-05T02:12:50.067Z,10.77
2023-12-05T02:15:19.378Z,10.47
2023-12-05T02:17:55.751Z,9.83
2023-12-05T02:20:31.130Z,9.80
2023-12-05T02:23:27.936Z,9.60
2023-12-05T02:26:09.507Z,10.63
2023-12-05T02:28:39.606Z,11.13
2023-12-05T02:31:09.003Z,10.23
2023-12-05T02:33:38.114Z,10.37
2023-12-05T02:36:19.068Z,9.67
2023-12-05T02:38:55.439Z,10.30
2023-12-05T02:41:27.743Z,10.77
2023-12-05T02:44:01.193Z,10.07
2023-12-05T02:46:30.432Z,11.03
2023-12-05T02:49:00.941Z,11.00
2023-12-05T02:51:29.787Z,11.07
2023-12-05T02:54:02.673Z,10.67
2023-12-05T02:56:31.647Z,10.90
2023-12-05T02:59:02.039Z,11.57
2023-12-05T03:01:30.769Z,9.20
2023-12-05T03:03:59.506Z,10.73
2023-12-05T03:06:29.827Z,9.37
2023-12-05T03:09:02.222Z,11.20
2023-12-05T03:11:30.860Z,10.53
2023-12-05T03:13:59.573Z,10.30
2023-12-05T03:16:30.315Z,11.00
2023-12-05T03:18:59.448Z,10.70
2023-12-05T03:21:28.802Z,10.80
2023-12-05T03:23:57.546Z,10.77
2023-12-05T03:26:27.384Z,9.40
2023-12-05T03:28:56.280Z,10.07
2023-12-05T03:31:25.074Z,8.93
2023-12-05T03:33:55.457Z,9.27
2023-12-05T03:36:24.245Z,8.47
2023-12-05T03:38:52.811Z,8.43
2023-12-05T03:41:21.481Z,8.57
2023-12-05T03:43:51.496Z,8.57
2023-12-05T03:46:20.077Z,8.57
2023-12-05T03:48:49.004Z,8.43
2023-12-05T03:51:19.860Z,9.40
2023-12-05T03:53:48.322Z,8.67
2023-12-05T03:56:16.865Z,8.40
2023-12-05T03:58:45.454Z,8.40
2023-12-05T04:01:14.246Z,8.80
2023-12-05T04:03:43.131Z,8.93
2023-12-05T04:06:20.735Z,8.10
2023-12-05T04:08:51.255Z,9.33
2023-12-05T04:11:19.778Z,9.13
2023-12-05T04:13:48.663Z,8.57
2023-12-05T04:16:17.441Z,8.50
2023-12-05T04:18:46.392Z,7.93
2023-12-05T04:21:15.142Z,7.67
2023-12-05T04:23:44.011Z,8.77
2023-12-05T04:26:16.264Z,7.60
2023-12-05T04:28:45.200Z,7.43
2023-12-05T04:31:14.017Z,7.73
2023-12-05T04:33:43.512Z,7.37
2023-12-05T04:36:13.097Z,7.47
2023-12-05T04:38:42.573Z,6.73
2023-12-05T04:41:11.102Z,7.33
2023-12-05T04:43:41.641Z,7.43
2023-12-05T04:46:10.384Z,6.43
2023-12-05T04:48:39.077Z,5.47
2023-12-05T04:51:08.189Z,5.70
2023-12-05T04:53:37.050Z,6.47
2023-12-05T04:56:06.022Z,5.23
2023-12-05T04:58:35.048Z,5.50
2023-12-05T05:01:05.363Z,4.67
2023-12-05T05:03:34.174Z,4.70
2023-12-05T05:06:02.464Z,4.43
2023-12-05T05:08:31.354Z,5.10
2023-12-05T05:11:00.243Z,4.60
2023-12-05T05:13:28.551Z,4.60
2023-12-05T05:15:56.871Z,4.47
2023-12-05T05:18:27.113Z,4.47
2023-12-05T05:20:55.285Z,4.10
2023-12-05T05:23:24.012Z,4.53
2023-12-05T05:25:52.185Z,4.50
2023-12-05T05:28:20.420Z,3.87
2023-12-05T05:30:49.619Z,4.20
2023-12-05T05:33:18.041Z,4.37
2023-12-05T05:35:48.182Z,3.97
2023-12-05T05:38:16.884Z,3.77
2023-12-05T05:40:45.488Z,3.70
2023-12-05T05:43:13.649Z,4.17
2023-12-05T05:45:44.341Z,4.13
2023-12-05T05:48:12.873Z,3.37
2023-12-05T05:50:41.967Z,3.47
2023-12-05T05:53:11.622Z,3.57
2023-12-05T05:55:39.893Z,3.63
2023-12-05T05:58:08.029Z,3.60
2023-12-05T06:00:38.373Z,3.10
2023-12-05T06:03:07.948Z,2.67
2023-12-05T06:05:36.809Z,2.33
2023-12-05T06:08:06.268Z,2.70
2023-12-05T06:10:37.481Z,2.43
2023-12-05T06:13:05.922Z,2.80
2023-12-05T06:15:35.018Z,2.43
2023-12-05T06:18:05.654Z,2.23
2023-12-05T06:20:36.940Z,2.30
2023-12-05T06:23:07.252Z,2.73
2023-12-05T06:25:37.438Z,2.30
2023-12-05T06:28:10.562Z,1.70
2023-12-05T06:30:41.850Z,2.50
2023-12-05T06:33:10.671Z,2.00
2023-12-05T06:35:39.237Z,2.40
2023-12-05T06:38:07.582Z,2.10
2023-12-05T06:40:40.492Z,1.90
2023-12-05T06:43:09.824Z,2.00
2023-12-05T06:45:38.569Z,2.20
2023-12-05T06:48:07.852Z,1.90
2023-12-05T06:50:36.743Z,2.23
2023-12-05T06:53:06.909Z,1.70
2023-12-05T06:55:35.902Z,1.83
2023-12-05T06:58:07.516Z,1.80
2023-12-05T07:00:36.351Z,2.00
2023-12-05T07:03:04.912Z,1.70
2023-12-05T07:05:33.470Z,1.83
2023-12-05T07:08:03.103Z,1.93
2023-12-05T07:10:33.226Z,2.03
2023-12-05T07:13:02.217Z,2.17
2023-12-05T07:15:32.148Z,2.23
2023-12-05T07:18:00.960Z,1.57
2023-12-05T07:20:29.642Z,2.20
2023-12-05T07:22:58.759Z,2.00
2023-12-05T07:25:27.688Z,2.03
2023-12-05T07:27:56.557Z,2.90
2023-12-05T07:30:28.830Z,2.40
2023-12-05T07:33:00.487Z,1.90
2023-12-05T07:35:28.722Z,1.80
2023-12-05T07:37:57.409Z,2.40
2023-12-05T07:40:26.049Z,2.17
2023-12-05T07:42:54.758Z,2.17
2023-12-05T07:45:23.171Z,2.40
2023-12-05T07:47:51.876Z,2.17
2023-12-05T07:50:21.939Z,2.60
2023-12-05T07:52:51.576Z,2.17
2023-12-05T07:55:20.398Z,2.23
2023-12-05T07:57:49.764Z,2.80
2023-12-05T08:00:20.644Z,2.40
2023-12-05T08:02:50.799Z,2.20
2023-12-05T08:05:19.606Z,2.50
2023-12-05T08:07:53.549Z,2.63
2023-12-05T08:10:22.154Z,2.73
2023-12-05T08:12:50.949Z,2.23
2023-12-05T08:15:22.108Z,2.67
2023-12-05T08:17:53.641Z,2.50
2023-12-05T08:20:23.331Z,2.73
2023-12-05T08:22:59.568Z,2.40
2023-12-05T08:28:12.290Z,2.77
2023-12-05T08:30:42.878Z,2.60
2023-12-05T08:33:11.763Z,3.10
2023-12-05T08:35:40.665Z,2.37
2023-12-05T08:38:12.471Z,2.50
2023-12-05T08:40:41.441Z,2.60
2023-12-05T08:43:12.078Z,2.43
2023-12-05T08:45:41.936Z,2.40
2023-12-05T08:48:14.205Z,2.60
2023-12-05T08:50:56.876Z,2.90
2023-12-05T08:53:28.052Z,2.43
2023-12-05T08:55:57.051Z,2.23
2023-12-05T09:01:24.627Z,2.57
2023-12-05T09:03:54.606Z,2.70
2023-12-05T09:06:35.392Z,2.90
2023-12-05T09:09:09.530Z,2.63
2023-12-05T09:11:39.138Z,2.93
2023-12-05T09:14:08.079Z,2.70
2023-12-05T09:16:37.522Z,2.37
2023-12-05T09:19:18.457Z,2.50
2023-12-05T09:21:47.446Z,2.50
2023-12-05T09:24:18.506Z,3.23
2023-12-05T09:26:55.464Z,2.27
2023-12-05T09:29:26.037Z,2.50
2023-12-05T09:31:53.244Z,2.60
2023-12-05T09:34:21.268Z,2.37
2023-12-05T09:36:49.468Z,2.70
2023-12-05T09:39:19.482Z,2.20
2023-12-05T09:41:52.953Z,2.53
2023-12-05T09:44:22.837Z,2.20
2023-12-05T09:46:54.360Z,2.47
2023-12-05T09:49:28.513Z,2.60
2023-12-05T09:51:57.834Z,2.90
2023-12-05T09:54:28.873Z,2.83
2023-12-05T09:56:57.511Z,3.20
2023-12-05T09:59:26.016Z,2.90
2023-12-05T10:01:58.000Z,2.70
2023-12-05T10:04:30.724Z,3.30
2023-12-05T10:07:00.767Z,3.23
2023-12-05T10:09:33.228Z,2.70
2023-12-05T10:12:01.458Z,2.87
2023-12-05T10:14:30.940Z,3.10
2023-12-05T10:17:00.370Z,2.83
2023-12-05T10:19:31.760Z,2.67
2023-12-05T10:22:00.375Z,3.50
2023-12-05T10:24:43.836Z,3.33
2023-12-05T10:27:12.326Z,3.20
2023-12-05T10:29:42.456Z,3.07
2023-12-05T10:32:12.974Z,3.17
2023-12-05T10:34:51.429Z,3.53
2023-12-05T10:37:23.446Z,3.10
2023-12-05T10:39:54.225Z,2.70
2023-12-05T10:42:23.673Z,3.27
2023-12-05T10:44:52.070Z,3.40
2023-12-05T10:47:21.011Z,2.90
2023-12-05T10:49:50.935Z,3.13
2023-12-05T10:52:19.510Z,3.20
2023-12-05T10:54:55.653Z,3.03
2023-12-05T10:57:41.939Z,2.90
2023-12-05T11:00:11.417Z,3.07
2023-12-05T11:02:41.438Z,2.93
2023-12-05T11:05:11.442Z,3.53
2023-12-05T11:07:39.746Z,3.50
2023-12-05T11:10:09.205Z,3.50
2023-12-05T11:12:41.728Z,3.40
2023-12-05T11:15:18.448Z,3.20
2023-12-05T11:17:51.509Z,3.90
2023-12-05T11:20:32.356Z,3.60
2023-12-05T11:23:22.618Z,2.87
2023-12-05T11:26:02.782Z,2.73
2023-12-05T11:28:48.666Z,3.57
2023-12-05T11:31:27.834Z,2.90
2023-12-05T11:34:22.829Z,2.80
2023-12-05T11:36:59.155Z,2.90
2023-12-05T11:39:28.667Z,2.90
2023-12-05T11:42:10.295Z,2.67
2023-12-05T11:44:41.492Z,3.00
2023-12-05T11:47:15.720Z,3.13
2023-12-05T11:49:51.639Z,2.77
2023-12-05T11:52:21.524Z,2.57
2023-12-05T11:54:50.671Z,2.73
2023-12-05T11:57:20.033Z,2.67
2023-12-05T11:59:50.738Z,3.00
2023-12-05T12:02:20.712Z,2.90
2023-12-05T12:04:48.904Z,2.57
2023-12-05T12:07:17.479Z,2.63
2023-12-05T12:09:45.917Z,2.60
2023-12-05T12:12:14.739Z,2.37
2023-12-05T12:14:44.500Z,2.47
2023-12-05T12:17:14.264Z,3.07
2023-12-05T12:19:43.706Z,2.70
2023-12-05T12:22:14.223Z,2.60
2023-12-05T12:24:43.383Z,2.30
2023-12-05T12:27:12.606Z,2.23
2023-12-05T12:29:41.032Z,2.20
2023-12-05T12:32:10.929Z,2.07
2023-12-05T12:34:44.089Z,2.53
2023-12-05T12:37:20.840Z,2.20
2023-12-05T12:39:51.831Z,2.20
2023-12-05T12:42:20.364Z,2.00
2023-12-05T12:44:48.432Z,1.90
2023-12-05T12:47:19.329Z,2.03
2023-12-05T12:49:48.934Z,2.30
2023-12-05T12:52:17.737Z,1.97
2023-12-05T12:54:46.134Z,2.57
2023-12-05T12:57:15.381Z,2.53
2023-12-05T12:59:45.729Z,2.43
2023-12-05T13:02:34.100Z,2.43
2023-12-05T13:05:04.248Z,2.13
2023-12-05T13:07:33.093Z,2.87
2023-12-05T13:10:01.288Z,2.90
2023-12-05T13:12:29.698Z,3.50
2023-12-05T13:14:59.020Z,3.30
2023-12-05T13:17:27.083Z,2.67
2023-12-05T13:20:09.584Z,3.10
2023-12-05T13:22:37.699Z,3.43
2023-12-05T13:25:07.456Z,2.43
2023-12-05T13:27:37.265Z,2.70
2023-12-05T13:30:07.110Z,2.53
2023-12-05T13:32:35.966Z,4.60
2023-12-05T13:35:06.504Z,4.10
2023-12-05T13:37:34.626Z,4.23
2023-12-05T13:40:02.846Z,5.07
2023-12-05T13:42:31.024Z,4.10
2023-12-05T13:44:59.177Z,3.50
2023-12-05T13:47:27.768Z,4.20
2023-12-05T13:49:55.901Z,4.43
2023-12-05T13:52:25.761Z,4.23
2023-12-05T13:54:54.982Z,3.87
2023-12-05T13:57:25.527Z,4.83
2023-12-05T13:59:53.642Z,4.00
2023-12-05T14:02:21.729Z,4.77
2023-12-05T14:04:49.849Z,5.23
2023-12-05T14:07:18.312Z,4.67
2023-12-05T14:09:47.779Z,5.00
2023-12-05T14:12:15.950Z,5.17
2023-12-05T14:14:44.153Z,4.30
2023-12-05T14:17:12.479Z,4.33
2023-12-05T14:19:42.496Z,4.63
2023-12-05T14:22:10.581Z,4.13
2023-12-05T14:24:38.842Z,4.23
2023-12-05T14:27:08.653Z,3.80
2023-12-05T14:29:36.818Z,3.33
2023-12-05T14:32:05.293Z,3.97
2023-12-05T14:34:33.662Z,3.53
2023-12-05T14:37:02.838Z,3.23
2023-12-05T14:39:32.405Z,2.40
2023-12-05T14:42:00.451Z,3.23
2023-12-05T14:44:29.815Z,3.20
2023-12-05T14:46:57.982Z,2.50
2023-12-05T14:49:26.204Z,2.80
2023-12-05T14:51:54.255Z,2.53
2023-12-05T14:54:22.728Z,2.30
2023-12-05T14:56:51.041Z,2.30
2023-12-05T14:59:19.674Z,2.33
2023-12-05T15:01:49.305Z,1.93
2023-12-05T15:04:17.444Z,2.10
2023-12-05T15:06:45.662Z,2.60
2023-12-05T15:09:13.920Z,3.00
2023-12-05T15:11:42.014Z,3.67
2023-12-05T15:14:11.846Z,4.00
2023-12-05T15:16:40.128Z,3.23
2023-12-05T15:19:10.396Z,3.50
2023-12-05T15:21:38.702Z,3.47
2023-12-05T15:24:07.100Z,3.20
2023-12-05T15:26:35.957Z,3.53
2023-12-05T15:29:03.961Z,3.90
2023-12-05T15:31:32.047Z,4.13
2023-12-05T15:34:00.657Z,4.20
2023-12-05T15:36:30.252Z,3.87
2023-12-05T15:38:58.281Z,4.67
2023-12-05T15:41:26.613Z,4.07
2023-12-05T15:43:54.590Z,5.13
2023-12-05T15:46:23.753Z,4.90
2023-12-05T15:48:52.572Z,4.93
2023-12-05T15:51:20.875Z,5.80
2023-12-05T15:53:50.586Z,5.33
2023-12-05T15:56:18.799Z,5.80
2023-12-05T15:58:46.975Z,4.20
2023-12-05T16:01:15.080Z,4.37
2023-12-05T16:03:43.554Z,4.53
2023-12-05T16:06:11.816Z,4.47
2023-12-05T16:08:39.849Z,4.57
2023-12-05T16:11:10.019Z,4.30
2023-12-05T16:13:39.335Z,5.00
2023-12-05T16:16:09.302Z,4.40
2023-12-05T16:18:37.750Z,4.87
2023-12-05T16:21:07.894Z,4.83
2023-12-05T16:23:37.513Z,4.73
2023-12-05T16:26:08.152Z,4.60
2023-12-05T16:28:38.989Z,5.07
2023-12-05T16:31:07.738Z,5.13
2023-12-05T16:33:36.308Z,4.77
2023-12-05T16:36:04.611Z,4.73
2023-12-05T16:38:32.663Z,4.70
2023-12-05T16:41:00.728Z,4.03
2023-12-05T16:43:28.724Z,5.20
2023-12-05T16:45:58.180Z,5.10
2023-12-05T16:48:26.267Z,4.40
2023-12-05T16:50:55.430Z,4.43
2023-12-05T16:53:23.409Z,4.37
2023-12-05T16:55:51.399Z,4.23
2023-12-05T16:58:21.566Z,4.57
2023-12-05T17:00:49.974Z,6.43
2023-12-05T17:03:21.433Z,4.80
2023-12-05T17:05:49.918Z,5.20
2023-12-05T17:08:17.995Z,5.43
2023-12-05T17:10:46.134Z,4.57
2023-12-05T17:13:14.636Z,3.73
2023-12-05T17:15:43.216Z,3.87
2023-12-05T17:18:12.306Z,3.40
2023-12-05T17:20:41.725Z,3.53
2023-12-05T17:23:09.745Z,3.60
2023-12-05T17:25:37.841Z,3.20
2023-12-05T17:28:06.464Z,2.90
2023-12-05T17:30:35.360Z,3.17
2023-12-05T17:33:04.118Z,2.37
2023-12-05T17:35:32.325Z,2.40
2023-12-05T17:38:01.833Z,2.30
2023-12-05T17:40:29.803Z,2.17
2023-12-05T17:42:57.794Z,2.03
2023-12-05T17:45:25.906Z,2.47
2023-12-05T17:47:54.786Z,2.30
2023-12-05T17:50:22.876Z,2.80
2023-12-05T17:52:50.981Z,2.30
2023-12-05T17:55:20.522Z,2.37
2023-12-05T17:57:48.667Z,2.50
2023-12-05T18:00:17.259Z,2.10
2023-12-05T18:02:45.409Z,3.13
2023-12-05T18:05:13.645Z,2.83
2023-12-05T18:07:54.380Z,3.43
2023-12-05T18:10:27.678Z,2.47
2023-12-05T18:12:55.833Z,3.33
2023-12-05T18:15:23.984Z,3.47
2023-12-05T18:17:52.077Z,2.80
2023-12-05T18:20:20.370Z,2.37
2023-12-05T18:22:48.584Z,2.80
2023-12-05T18:25:18.175Z,2.90
2023-12-05T18:27:50.841Z,2.60
2023-12-05T18:30:19.001Z,2.40
2023-12-05T18:32:48.114Z,1.97
2023-12-05T18:35:16.441Z,2.73
2023-12-05T18:37:44.486Z,1.80
2023-12-05T18:40:14.189Z,1.87
2023-12-05T18:42:43.504Z,2.43
2023-12-05T18:45:13.335Z,2.93
2023-12-05T18:47:41.335Z,2.03
2023-12-05T18:50:11.222Z,2.50
2023-12-05T18:52:39.869Z,2.07
2023-12-05T18:55:09.838Z,2.17
2023-12-05T18:57:44.450Z,2.33
2023-12-05T19:00:15.780Z,2.30
2023-12-05T19:02:44.217Z,2.43
2023-12-05T19:05:12.455Z,2.77
2023-12-05T19:07:40.957Z,3.00
2023-12-05T19:10:10.441Z,3.50
2023-12-05T19:12:38.884Z,3.23
2023-12-05T19:15:08.064Z,2.60
2023-12-05T19:17:37.853Z,3.00
2023-12-05T19:20:08.263Z,2.67
2023-12-05T19:22:37.615Z,2.77
2023-12-05T19:25:07.258Z,3.10
2023-12-05T19:27:35.754Z,3.27
2023-12-05T19:30:05.708Z,3.47
2023-12-05T19:32:33.800Z,3.30
2023-12-05T19:35:08.104Z,3.17
2023-12-05T19:37:36.330Z,3.33
2023-12-05T19:40:05.566Z,3.57
2023-12-05T19:42:33.656Z,3.43
2023-12-05T19:45:01.989Z,4.00
2023-12-05T19:47:30.782Z,4.50
2023-12-05T19:49:59.194Z,4.13
2023-12-05T19:52:28.654Z,4.47
2023-12-05T19:54:56.692Z,3.50
2023-12-05T19:57:24.663Z,4.13
2023-12-05T19:59:52.704Z,4.40
2023-12-05T20:02:20.614Z,3.77
2023-12-05T20:04:48.689Z,3.50
2023-12-05T20:07:18.435Z,3.73
2023-12-05T20:09:48.140Z,4.40
2023-12-05T20:12:16.198Z,4.00
2023-12-05T20:14:44.364Z,4.13
2023-12-05T20:17:13.008Z,3.50
2023-12-05T20:19:42.658Z,3.00
2023-12-05T20:22:10.910Z,2.57
2023-12-05T20:24:39.082Z,2.27
2023-12-05T20:27:08.614Z,2.30
2023-12-05T20:29:36.679Z,2.23
2023-12-05T20:32:04.751Z,2.70
2023-12-05T20:34:32.913Z,2.50
2023-12-05T20:37:01.243Z,2.30
2023-12-05T20:39:29.217Z,2.03
2023-12-05T20:41:58.005Z,2.60
2023-12-05T20:44:27.408Z,2.00
2023-12-05T20:49:52.212Z,2.07
2023-12-05T20:52:20.640Z,2.20
2023-12-05T20:54:49.660Z,2.57
2023-12-05T20:57:19.047Z,2.20
2023-12-05T20:59:50.483Z,2.10
2023-12-05T21:02:19.170Z,2.00
2023-12-05T21:04:48.723Z,2.27
2023-12-05T21:07:20.067Z,2.70
2023-12-05T21:10:08.608Z,2.00
2023-12-05T21:12:38.199Z,4.00
2023-12-05T21:15:10.068Z,3.53
2023-12-05T21:17:43.832Z,2.83
2023-12-05T21:20:13.468Z,3.47
2023-12-05T21:22:42.719Z,2.83
2023-12-05T21:25:11.890Z,3.13
2023-12-05T21:27:43.340Z,3.27
2023-12-05T21:30:15.040Z,2.93
2023-12-05T21:32:45.630Z,3.27
2023-12-05T21:35:15.307Z,3.10
2023-12-05T21:37:46.560Z,2.93
2023-12-05T21:40:18.659Z,3.60
2023-12-05T21:42:47.630Z,3.17
2023-12-05T21:45:18.279Z,3.30
2023-12-05T21:47:48.500Z,3.07
2023-12-05T21:50:17.361Z,2.57
2023-12-05T21:52:47.335Z,2.13
2023-12-05T21:58:01.541Z,2.30
2023-12-05T22:00:32.388Z,2.10
2023-12-05T22:03:01.185Z,2.33
2023-12-05T22:05:29.934Z,2.47
2023-12-05T22:07:59.571Z,2.50
2023-12-05T22:10:28.842Z,1.93
2023-12-05T22:12:57.432Z,2.20
2023-12-05T22:15:25.690Z,2.00
2023-12-05T22:17:55.556Z,2.23
2023-12-05T22:20:23.950Z,2.33
2023-12-05T22:22:52.149Z,1.70
2023-12-05T22:25:22.119Z,1.87
2023-12-05T22:27:50.792Z,2.20
2023-12-05T22:30:19.657Z,2.13
2023-12-05T22:32:48.287Z,1.77
2023-12-05T22:35:18.255Z,1.33
2023-12-05T22:37:47.050Z,1.23
2023-12-05T22:40:15.854Z,1.40
2023-12-05T22:42:44.706Z,1.30
2023-12-05T22:45:13.219Z,1.50
2023-12-05T22:47:41.958Z,1.70
2023-12-05T22:50:11.223Z,1.30
2023-12-05T22:52:41.304Z,1.37
2023-12-05T22:55:11.477Z,1.17
2023-12-05T22:57:39.811Z,1.00
2023-12-05T23:00:13.544Z,1.10
2023-12-05T23:02:42.045Z,1.07
2023-12-05T23:05:10.541Z,1.00
2023-12-05T23:07:39.518Z,1.30
2023-12-05T23:10:09.940Z,0.83
2023-12-05T23:12:39.482Z,0.83
2023-12-05T23:15:08.621Z,0.80
2023-12-05T23:17:37.009Z,0.90
2023-12-05T23:20:06.039Z,1.00
2023-12-05T23:22:34.756Z,0.70
2023-12-05T23:25:02.933Z,0.67
2023-12-05T23:27:32.760Z,1.50
2023-12-05T23:30:01.180Z,2.03
2023-12-05T23:32:29.484Z,2.10
2023-12-05T23:34:58.202Z,2.80
2023-12-05T23:37:26.954Z,2.57
2023-12-05T23:39:55.672Z,2.60
2023-12-05T23:42:24.323Z,2.60
2023-12-05T23:44:54.471Z,3.10
2023-12-05T23:47:24.882Z,2.67
2023-12-05T23:49:53.521Z,2.60
2023-12-05T23:52:22.241Z,2.83
2023-12-05T23:54:50.478Z,3.20
2023-12-05T23:57:18.645Z,2.57
2023-12-05T23:59:47.172Z,3.23
